Estación de San Diego

Ultimos registro cada 15 minutos 25
Estación Fecha / Hora Temperatura Humedad Lluvia Velocidad Dirección Radiación Presion
25 San Diego 08-05-2026 06:00 4,1 93 0 0 351 0 1021
24 San Diego 08-05-2026 05:45 4,2 94 0 0 354 0 1020,6
23 San Diego 08-05-2026 05:30 4 93 0 0 354 0 1020,2
22 San Diego 08-05-2026 05:15 4,2 92 0 0 354 0 1020,1
21 San Diego 08-05-2026 05:00 4,7 93 0 0 354 0 1020,3
20 San Diego 08-05-2026 04:45 5 93 0 0 354 0 1020,1
19 San Diego 08-05-2026 04:30 4,9 92 0 0 354 0 1019,8
18 San Diego 08-05-2026 04:15 5,1 92 0 0 354 0 1019,7
17 San Diego 08-05-2026 04:00 5,3 90 0 0 328 0 1020
16 San Diego 08-05-2026 03:45 5,9 91 0 0 16 0 1020,4
15 San Diego 08-05-2026 03:30 6,2 90 0 0 16 0 1020,8
14 San Diego 08-05-2026 03:15 6,4 89 0 0 16 0 1020,7
13 San Diego 08-05-2026 03:00 6,8 89 0 0 37 0 1021,1
12 San Diego 08-05-2026 02:45 7,2 86 0 0 341 0 1021,1
11 San Diego 08-05-2026 02:30 8,3 81 0 0 341 0 1021,2
10 San Diego 08-05-2026 02:15 10,8 74 0 0,9 314 0 1021
9 San Diego 08-05-2026 02:00 11,8 73 0 0,4 154 0 1021,2
8 San Diego 08-05-2026 01:45 11,7 73 0 1,3 164 0 1021,5
7 San Diego 08-05-2026 01:30 11,9 73 0 0,4 168 0 1021,6
6 San Diego 08-05-2026 01:15 12,3 71 0 0 150 0 1021,7
5 San Diego 08-05-2026 01:00 12,2 72 0 0,9 141 0 1021,8
4 San Diego 08-05-2026 00:45 12,1 72 0 1,3 196 0 1022
3 San Diego 08-05-2026 00:30 12,3 72 0 0 193 0 1022,3
2 San Diego 08-05-2026 00:15 12,4 71 0 0,9 186 0 1022,1
1 San Diego 08-05-2026 00:00 12,5 72 0 0 127 0 1022,1